メインページ
METAR-TAF:

METAR-TAF

空港 :

アルトゥーロ・メリノ・ベニテス国際空港

サンティアゴ, チリ

緯度: 33-23S, 経度: 070-47W, 海抜: 475m

現時点の気象観測

当レポートは49分前の11:00(UTC)に作成
変向風 2kt
気温 6°C
湿度 81%
気圧 1017 hPa
視程: 8000m

METAR: SCEL 221100Z VRB02KT 8000 NSC 06/03 Q1017 NOSIG

時間: 07:49 (11:49 UTC)

予報

当レポートは1時間21分前の10:28(UTC)に作成
予報は22日の 12時(UTC)から 23日の 12時(UTC)まで有効
南/南東の風 4kt
視程: 8000m
22日の 12時(UTC)から 22日の 14時(UTC)まで一時的に
変向風 2kt
視程: 5000m
煙霧
22日の 16時(UTC)から 22日の 18時(UTC)まで徐々に
の風 12kt
視程10km以上
1,500メートル以下は雲なし、積乱雲なし
23日の 01時(UTC)から 23日の 03時(UTC)まで徐々に
の風 5kt
23日の 04時(UTC)から 23日の 06時(UTC)まで徐々に
南/南東の風 4kt
視程: 8000m
23日の 10時(UTC)から 23日の 12時(UTC)まで一時的に
視程: 5000m
煙霧

TAF: SCEL 221028Z 2212/2312 16004KT 8000 NSC TX24/2219Z TN04/2311Z TEMPO 2212/2214 VRB02KT 5000 HZ BECMG 2216/2218 19012KT CAVOK BECMG 2301/2303 18005KT BECMG 2304/2306 15004KT 8000 NSC TEMPO 2310/2312 5000 HZ

4,000以上の空港の気象観測と天気予報(METAR報とTAF報)

利用可能な観測所は地図上に黄色い丸と赤い丸で示す。

丸の上にカーソルを重ねると観測所名を参照できる。

次にクリックすると気象観測と天気予報を参照できる。

マップの切り替え:黒色「×」印の緑ボタンをクリックして拡大、「-」印の緑ボタンをクリックして縮小、緑色の三角印をクリックして隣りの地図に切り替え


METAR-TAF: